sensor_id;sensor_type;location;lat;lon;timestamp;P1;durP1;ratioP1;P2;durP2;ratioP2
48777;SDS011;34578;0.000;0.000;2023-03-14T00:01:32;3.17;;;0.70;;
48777;SDS011;34578;0.000;0.000;2023-03-14T00:06:32;1.07;;;0.53;;
48777;SDS011;34578;0.000;0.000;2023-03-14T00:11:35;2.30;;;0.55;;
48777;SDS011;34578;0.000;0.000;2023-03-14T00:16:35;0.95;;;0.52;;
48777;SDS011;34578;0.000;0.000;2023-03-14T00:21:35;1.73;;;0.77;;
48777;SDS011;34578;0.000;0.000;2023-03-14T00:26:36;0.57;;;0.37;;
48777;SDS011;34578;0.000;0.000;2023-03-14T00:31:36;1.80;;;0.87;;
48777;SDS011;34578;0.000;0.000;2023-03-14T00:36:37;0.93;;;0.40;;
48777;SDS011;34578;0.000;0.000;2023-03-14T00:41:37;3.17;;;0.60;;
48777;SDS011;34578;0.000;0.000;2023-03-14T00:46:37;2.17;;;0.47;;
48777;SDS011;34578;0.000;0.000;2023-03-14T00:51:38;2.03;;;1.00;;
48777;SDS011;34578;0.000;0.000;2023-03-14T00:56:38;1.53;;;0.60;;
48777;SDS011;34578;0.000;0.000;2023-03-14T01:01:39;1.00;;;0.43;;
48777;SDS011;34578;0.000;0.000;2023-03-14T01:06:40;4.45;;;1.00;;
48777;SDS011;34578;0.000;0.000;2023-03-14T01:11:40;3.63;;;0.97;;
48777;SDS011;34578;0.000;0.000;2023-03-14T01:16:40;4.80;;;1.27;;
48777;SDS011;34578;0.000;0.000;2023-03-14T01:21:41;0.50;;;0.50;;
48777;SDS011;34578;0.000;0.000;2023-03-14T01:26:41;2.00;;;0.80;;
48777;SDS011;34578;0.000;0.000;2023-03-14T01:31:42;2.60;;;0.60;;
48777;SDS011;34578;0.000;0.000;2023-03-14T01:36:43;1.55;;;0.60;;
48777;SDS011;34578;0.000;0.000;2023-03-14T01:41:44;1.50;;;0.47;;
48777;SDS011;34578;0.000;0.000;2023-03-14T01:46:45;1.00;;;0.45;;
48777;SDS011;34578;0.000;0.000;2023-03-14T02:02:10;0.90;;;0.60;;
48777;SDS011;34578;0.000;0.000;2023-03-14T02:12:30;0.88;;;0.50;;
48777;SDS011;34578;0.000;0.000;2023-03-14T02:18:03;0.75;;;0.35;;
48777;SDS011;34578;0.000;0.000;2023-03-14T02:28:42;3.03;;;0.60;;
48777;SDS011;34578;0.000;0.000;2023-03-14T02:33:43;3.70;;;0.88;;
48777;SDS011;34578;0.000;0.000;2023-03-14T02:38:46;1.02;;;0.80;;
48777;SDS011;34578;0.000;0.000;2023-03-14T02:43:53;1.58;;;1.40;;
48777;SDS011;34578;0.000;0.000;2023-03-14T02:48:58;0.85;;;0.40;;
48777;SDS011;34578;0.000;0.000;2023-03-14T02:54:05;0.88;;;0.43;;
48777;SDS011;34578;0.000;0.000;2023-03-14T02:59:06;1.33;;;0.50;;
48777;SDS011;34578;0.000;0.000;2023-03-14T03:04:16;2.55;;;0.82;;
48777;SDS011;34578;0.000;0.000;2023-03-14T03:09:19;1.25;;;0.40;;
48777;SDS011;34578;0.000;0.000;2023-03-14T03:14:20;2.67;;;1.00;;
48777;SDS011;34578;0.000;0.000;2023-03-14T03:19:20;0.85;;;0.40;;
48777;SDS011;34578;0.000;0.000;2023-03-14T03:24:21;1.55;;;0.43;;
48777;SDS011;34578;0.000;0.000;2023-03-14T03:29:22;2.10;;;0.33;;
48777;SDS011;34578;0.000;0.000;2023-03-14T03:34:22;0.75;;;0.40;;
48777;SDS011;34578;0.000;0.000;2023-03-14T03:39:26;4.15;;;2.40;;
48777;SDS011;34578;0.000;0.000;2023-03-14T03:44:26;2.00;;;0.70;;
48777;SDS011;34578;0.000;0.000;2023-03-14T03:49:30;3.05;;;0.60;;
48777;SDS011;34578;0.000;0.000;2023-03-14T03:54:31;1.65;;;0.50;;
48777;SDS011;34578;0.000;0.000;2023-03-14T03:59:32;1.50;;;0.60;;
48777;SDS011;34578;0.000;0.000;2023-03-14T04:04:33;1.23;;;0.20;;
48777;SDS011;34578;0.000;0.000;2023-03-14T04:09:36;0.73;;;0.50;;
48777;SDS011;34578;0.000;0.000;2023-03-14T04:14:55;0.65;;;0.32;;
48777;SDS011;34578;0.000;0.000;2023-03-14T04:19:56;0.50;;;0.30;;
48777;SDS011;34578;0.000;0.000;2023-03-14T04:25:05;2.13;;;0.60;;
48777;SDS011;34578;0.000;0.000;2023-03-14T04:30:10;1.08;;;0.30;;
48777;SDS011;34578;0.000;0.000;2023-03-14T04:35:36;1.48;;;0.32;;
48777;SDS011;34578;0.000;0.000;2023-03-14T04:40:43;1.20;;;0.40;;
48777;SDS011;34578;0.000;0.000;2023-03-14T04:45:44;0.80;;;0.30;;
48777;SDS011;34578;0.000;0.000;2023-03-14T04:50:46;1.77;;;0.40;;
48777;SDS011;34578;0.000;0.000;2023-03-14T04:55:51;2.63;;;0.98;;
48777;SDS011;34578;0.000;0.000;2023-03-14T05:00:54;8.68;;;1.00;;
48777;SDS011;34578;0.000;0.000;2023-03-14T05:06:06;1.13;;;0.70;;
48777;SDS011;34578;0.000;0.000;2023-03-14T05:11:27;2.78;;;0.93;;
48777;SDS011;34578;0.000;0.000;2023-03-14T05:16:53;2.67;;;1.00;;
48777;SDS011;34578;0.000;0.000;2023-03-14T05:22:04;3.92;;;0.80;;
48777;SDS011;34578;0.000;0.000;2023-03-14T05:27:18;3.58;;;0.60;;
48777;SDS011;34578;0.000;0.000;2023-03-14T05:32:41;1.08;;;0.60;;
48777;SDS011;34578;0.000;0.000;2023-03-14T05:37:54;3.00;;;0.60;;
48777;SDS011;34578;0.000;0.000;2023-03-14T05:43:13;0.60;;;0.60;;
48777;SDS011;34578;0.000;0.000;2023-03-14T05:48:14;1.02;;;0.60;;
48777;SDS011;34578;0.000;0.000;2023-03-14T05:53:31;1.67;;;0.75;;
48777;SDS011;34578;0.000;0.000;2023-03-14T05:58:49;1.80;;;0.43;;
48777;SDS011;34578;0.000;0.000;2023-03-14T06:03:59;0.57;;;0.32;;
48777;SDS011;34578;0.000;0.000;2023-03-14T06:09:00;11.40;;;3.78;;
48777;SDS011;34578;0.000;0.000;2023-03-14T06:14:02;11.85;;;3.67;;
48777;SDS011;34578;0.000;0.000;2023-03-14T06:19:03;16.83;;;3.70;;
48777;SDS011;34578;0.000;0.000;2023-03-14T06:24:04;18.10;;;2.15;;
48777;SDS011;34578;0.000;0.000;2023-03-14T06:29:08;19.75;;;3.22;;
48777;SDS011;34578;0.000;0.000;2023-03-14T06:34:09;15.05;;;3.05;;
48777;SDS011;34578;0.000;0.000;2023-03-14T06:39:10;9.18;;;1.83;;
48777;SDS011;34578;0.000;0.000;2023-03-14T06:44:14;9.32;;;2.08;;
48777;SDS011;34578;0.000;0.000;2023-03-14T06:49:15;8.25;;;2.38;;
48777;SDS011;34578;0.000;0.000;2023-03-14T06:54:16;5.93;;;1.73;;
48777;SDS011;34578;0.000;0.000;2023-03-14T06:59:16;7.57;;;2.03;;
48777;SDS011;34578;0.000;0.000;2023-03-14T07:04:20;11.13;;;2.67;;
48777;SDS011;34578;0.000;0.000;2023-03-14T07:09:22;6.32;;;1.80;;
48777;SDS011;34578;0.000;0.000;2023-03-14T07:14:29;4.90;;;1.77;;
48777;SDS011;34578;0.000;0.000;2023-03-14T07:19:29;7.30;;;2.55;;
48777;SDS011;34578;0.000;0.000;2023-03-14T07:24:30;5.40;;;1.92;;
48777;SDS011;34578;0.000;0.000;2023-03-14T07:29:30;11.38;;;3.85;;
48777;SDS011;34578;0.000;0.000;2023-03-14T07:34:32;8.52;;;3.65;;
48777;SDS011;34578;0.000;0.000;2023-03-14T07:39:33;8.68;;;2.47;;
48777;SDS011;34578;0.000;0.000;2023-03-14T07:44:39;7.20;;;2.70;;
48777;SDS011;34578;0.000;0.000;2023-03-14T07:49:39;13.90;;;3.00;;
48777;SDS011;34578;0.000;0.000;2023-03-14T07:54:39;6.83;;;3.63;;
48777;SDS011;34578;0.000;0.000;2023-03-14T07:59:42;7.05;;;2.30;;
48777;SDS011;34578;0.000;0.000;2023-03-14T08:04:42;6.10;;;2.67;;
48777;SDS011;34578;0.000;0.000;2023-03-14T08:09:43;6.35;;;2.80;;
48777;SDS011;34578;0.000;0.000;2023-03-14T08:14:43;9.10;;;3.43;;
48777;SDS011;34578;0.000;0.000;2023-03-14T08:19:44;3.83;;;1.85;;
48777;SDS011;34578;0.000;0.000;2023-03-14T08:24:44;7.07;;;3.03;;
48777;SDS011;34578;0.000;0.000;2023-03-14T08:29:44;2.53;;;1.50;;
48777;SDS011;34578;0.000;0.000;2023-03-14T08:34:45;7.73;;;3.00;;
48777;SDS011;34578;0.000;0.000;2023-03-14T08:39:45;2.38;;;1.52;;
48777;SDS011;34578;0.000;0.000;2023-03-14T08:44:46;6.32;;;3.05;;
48777;SDS011;34578;0.000;0.000;2023-03-14T08:49:46;10.30;;;2.90;;
48777;SDS011;34578;0.000;0.000;2023-03-14T08:54:46;5.27;;;2.93;;
48777;SDS011;34578;0.000;0.000;2023-03-14T08:59:47;5.63;;;2.63;;
48777;SDS011;34578;0.000;0.000;2023-03-14T09:04:47;4.93;;;2.55;;
48777;SDS011;34578;0.000;0.000;2023-03-14T09:09:49;3.22;;;1.83;;
48777;SDS011;34578;0.000;0.000;2023-03-14T09:14:49;4.40;;;2.33;;
48777;SDS011;34578;0.000;0.000;2023-03-14T09:19:50;5.13;;;1.90;;
48777;SDS011;34578;0.000;0.000;2023-03-14T09:24:50;6.27;;;2.40;;
48777;SDS011;34578;0.000;0.000;2023-03-14T09:29:51;6.03;;;2.13;;
48777;SDS011;34578;0.000;0.000;2023-03-14T09:34:51;3.43;;;1.83;;
48777;SDS011;34578;0.000;0.000;2023-03-14T09:39:52;3.93;;;2.10;;
48777;SDS011;34578;0.000;0.000;2023-03-14T09:45:03;3.90;;;1.93;;
48777;SDS011;34578;0.000;0.000;2023-03-14T09:50:10;3.35;;;1.60;;
48777;SDS011;34578;0.000;0.000;2023-03-14T10:00:17;6.03;;;2.50;;
48777;SDS011;34578;0.000;0.000;2023-03-14T10:05:21;5.85;;;3.03;;
48777;SDS011;34578;0.000;0.000;2023-03-14T10:10:24;4.35;;;2.40;;
48777;SDS011;34578;0.000;0.000;2023-03-14T10:15:27;4.13;;;2.20;;
48777;SDS011;34578;0.000;0.000;2023-03-14T10:20:37;5.35;;;2.67;;
48777;SDS011;34578;0.000;0.000;2023-03-14T10:25:40;2.30;;;1.50;;
48777;SDS011;34578;0.000;0.000;2023-03-14T10:30:45;2.85;;;1.95;;
48777;SDS011;34578;0.000;0.000;2023-03-14T10:35:46;3.08;;;1.92;;
48777;SDS011;34578;0.000;0.000;2023-03-14T10:40:52;1.65;;;1.30;;
48777;SDS011;34578;0.000;0.000;2023-03-14T10:45:55;2.80;;;1.45;;
48777;SDS011;34578;0.000;0.000;2023-03-14T10:51:05;2.17;;;1.25;;
48777;SDS011;34578;0.000;0.000;2023-03-14T10:56:12;4.35;;;2.28;;
48777;SDS011;34578;0.000;0.000;2023-03-14T11:11:35;1.60;;;1.10;;
48777;SDS011;34578;0.000;0.000;2023-03-14T11:16:52;3.05;;;2.35;;
48777;SDS011;34578;0.000;0.000;2023-03-14T11:33:00;4.38;;;2.22;;
48777;SDS011;34578;0.000;0.000;2023-03-14T11:43:29;4.10;;;2.30;;
48777;SDS011;34578;0.000;0.000;2023-03-14T11:54:00;4.50;;;2.38;;
48777;SDS011;34578;0.000;0.000;2023-03-14T11:59:16;4.22;;;2.20;;
48777;SDS011;34578;0.000;0.000;2023-03-14T12:04:30;3.30;;;2.30;;
48777;SDS011;34578;0.000;0.000;2023-03-14T12:09:34;4.82;;;2.55;;
48777;SDS011;34578;0.000;0.000;2023-03-14T12:14:36;3.97;;;2.45;;
48777;SDS011;34578;0.000;0.000;2023-03-14T12:19:44;4.05;;;2.60;;
48777;SDS011;34578;0.000;0.000;2023-03-14T12:24:51;5.68;;;2.70;;
48777;SDS011;34578;0.000;0.000;2023-03-14T12:40:47;3.78;;;2.25;;
48777;SDS011;34578;0.000;0.000;2023-03-14T12:51:18;3.05;;;2.15;;
48777;SDS011;34578;0.000;0.000;2023-03-14T12:56:24;3.55;;;2.42;;
48777;SDS011;34578;0.000;0.000;2023-03-14T13:01:25;5.00;;;1.80;;
48777;SDS011;34578;0.000;0.000;2023-03-14T13:11:54;4.45;;;2.05;;
48777;SDS011;34578;0.000;0.000;2023-03-14T13:17:11;1.75;;;1.20;;
48777;SDS011;34578;0.000;0.000;2023-03-14T13:22:16;5.53;;;2.42;;
48777;SDS011;34578;0.000;0.000;2023-03-14T13:27:22;3.85;;;2.13;;
48777;SDS011;34578;0.000;0.000;2023-03-14T13:32:27;19.88;;;2.75;;
48777;SDS011;34578;0.000;0.000;2023-03-14T13:37:29;10.93;;;2.15;;
48777;SDS011;34578;0.000;0.000;2023-03-14T13:42:29;10.27;;;3.13;;
48777;SDS011;34578;0.000;0.000;2023-03-14T13:47:30;18.30;;;2.47;;
48777;SDS011;34578;0.000;0.000;2023-03-14T13:52:31;10.93;;;2.60;;
48777;SDS011;34578;0.000;0.000;2023-03-14T13:57:45;7.93;;;2.58;;
48777;SDS011;34578;0.000;0.000;2023-03-14T14:02:47;9.43;;;2.65;;
48777;SDS011;34578;0.000;0.000;2023-03-14T14:07:48;7.22;;;2.38;;
48777;SDS011;34578;0.000;0.000;2023-03-14T14:12:56;5.85;;;1.90;;
48777;SDS011;34578;0.000;0.000;2023-03-14T14:18:01;6.85;;;2.15;;
48777;SDS011;34578;0.000;0.000;2023-03-14T14:23:11;6.72;;;1.88;;
48777;SDS011;34578;0.000;0.000;2023-03-14T14:28:34;3.95;;;2.45;;
48777;SDS011;34578;0.000;0.000;2023-03-14T14:33:44;4.95;;;2.10;;
48777;SDS011;34578;0.000;0.000;2023-03-14T14:39:00;6.05;;;2.78;;
48777;SDS011;34578;0.000;0.000;2023-03-14T14:44:05;8.02;;;2.67;;
48777;SDS011;34578;0.000;0.000;2023-03-14T14:49:06;9.38;;;2.38;;
48777;SDS011;34578;0.000;0.000;2023-03-14T14:54:32;4.40;;;2.05;;
48777;SDS011;34578;0.000;0.000;2023-03-14T14:59:40;4.07;;;2.00;;
48777;SDS011;34578;0.000;0.000;2023-03-14T15:04:45;14.23;;;4.30;;
48777;SDS011;34578;0.000;0.000;2023-03-14T15:09:47;9.63;;;2.45;;
48777;SDS011;34578;0.000;0.000;2023-03-14T15:14:47;6.37;;;2.63;;
48777;SDS011;34578;0.000;0.000;2023-03-14T15:19:47;11.95;;;2.53;;
48777;SDS011;34578;0.000;0.000;2023-03-14T15:24:48;6.07;;;2.47;;
48777;SDS011;34578;0.000;0.000;2023-03-14T15:29:48;7.50;;;2.67;;
48777;SDS011;34578;0.000;0.000;2023-03-14T15:34:49;4.88;;;2.33;;
48777;SDS011;34578;0.000;0.000;2023-03-14T15:39:49;6.97;;;2.50;;
48777;SDS011;34578;0.000;0.000;2023-03-14T15:44:50;5.50;;;2.23;;
48777;SDS011;34578;0.000;0.000;2023-03-14T15:49:50;7.30;;;2.72;;
48777;SDS011;34578;0.000;0.000;2023-03-14T15:54:51;11.27;;;1.90;;
48777;SDS011;34578;0.000;0.000;2023-03-14T15:59:52;4.83;;;2.17;;
48777;SDS011;34578;0.000;0.000;2023-03-14T16:04:53;7.43;;;1.95;;
48777;SDS011;34578;0.000;0.000;2023-03-14T16:09:53;7.30;;;2.17;;
48777;SDS011;34578;0.000;0.000;2023-03-14T16:14:54;5.50;;;1.80;;
48777;SDS011;34578;0.000;0.000;2023-03-14T16:19:54;5.43;;;1.90;;
48777;SDS011;34578;0.000;0.000;2023-03-14T16:24:55;6.32;;;1.73;;
48777;SDS011;34578;0.000;0.000;2023-03-14T16:29:55;8.07;;;2.13;;
48777;SDS011;34578;0.000;0.000;2023-03-14T16:34:55;6.00;;;1.97;;
48777;SDS011;34578;0.000;0.000;2023-03-14T16:39:56;3.65;;;2.13;;
48777;SDS011;34578;0.000;0.000;2023-03-14T16:44:56;7.67;;;1.90;;
48777;SDS011;34578;0.000;0.000;2023-03-14T16:49:57;3.20;;;2.00;;
48777;SDS011;34578;0.000;0.000;2023-03-14T16:54:57;3.63;;;1.77;;
48777;SDS011;34578;0.000;0.000;2023-03-14T16:59:57;8.17;;;2.13;;
48777;SDS011;34578;0.000;0.000;2023-03-14T17:04:58;3.53;;;1.40;;
48777;SDS011;34578;0.000;0.000;2023-03-14T17:09:58;5.40;;;1.77;;
48777;SDS011;34578;0.000;0.000;2023-03-14T17:14:59;5.72;;;1.63;;
48777;SDS011;34578;0.000;0.000;2023-03-14T17:19:59;2.80;;;1.50;;
48777;SDS011;34578;0.000;0.000;2023-03-14T17:25:00;12.17;;;1.90;;
48777;SDS011;34578;0.000;0.000;2023-03-14T17:30:01;5.95;;;2.10;;
48777;SDS011;34578;0.000;0.000;2023-03-14T17:35:02;12.07;;;2.47;;
48777;SDS011;34578;0.000;0.000;2023-03-14T17:40:03;6.13;;;2.00;;
48777;SDS011;34578;0.000;0.000;2023-03-14T17:45:05;11.82;;;2.20;;
48777;SDS011;34578;0.000;0.000;2023-03-14T17:50:06;9.13;;;2.22;;
48777;SDS011;34578;0.000;0.000;2023-03-14T17:55:07;3.10;;;1.40;;
48777;SDS011;34578;0.000;0.000;2023-03-14T18:00:08;3.85;;;1.30;;
48777;SDS011;34578;0.000;0.000;2023-03-14T18:05:10;4.85;;;1.50;;
48777;SDS011;34578;0.000;0.000;2023-03-14T18:10:11;4.28;;;2.03;;
48777;SDS011;34578;0.000;0.000;2023-03-14T18:15:13;4.78;;;1.30;;
48777;SDS011;34578;0.000;0.000;2023-03-14T18:20:13;3.20;;;1.95;;
48777;SDS011;34578;0.000;0.000;2023-03-14T18:25:14;7.72;;;1.60;;
48777;SDS011;34578;0.000;0.000;2023-03-14T18:30:15;5.38;;;1.40;;
48777;SDS011;34578;0.000;0.000;2023-03-14T18:35:16;5.65;;;1.52;;
48777;SDS011;34578;0.000;0.000;2023-03-14T18:40:16;3.67;;;1.13;;
48777;SDS011;34578;0.000;0.000;2023-03-14T18:45:18;8.77;;;1.73;;
48777;SDS011;34578;0.000;0.000;2023-03-14T18:50:19;6.70;;;2.27;;
48777;SDS011;34578;0.000;0.000;2023-03-14T18:55:19;3.38;;;1.23;;
48777;SDS011;34578;0.000;0.000;2023-03-14T19:00:20;7.25;;;1.90;;
48777;SDS011;34578;0.000;0.000;2023-03-14T19:05:20;11.50;;;3.05;;
48777;SDS011;34578;0.000;0.000;2023-03-14T19:10:21;7.03;;;1.83;;
48777;SDS011;34578;0.000;0.000;2023-03-14T19:15:21;5.23;;;1.73;;
48777;SDS011;34578;0.000;0.000;2023-03-14T19:20:21;2.67;;;1.07;;
48777;SDS011;34578;0.000;0.000;2023-03-14T19:25:23;1.90;;;1.00;;
48777;SDS011;34578;0.000;0.000;2023-03-14T19:30:23;3.33;;;1.23;;
48777;SDS011;34578;0.000;0.000;2023-03-14T19:35:24;2.50;;;0.90;;
48777;SDS011;34578;0.000;0.000;2023-03-14T19:40:24;5.60;;;1.30;;
48777;SDS011;34578;0.000;0.000;2023-03-14T19:45:25;5.15;;;1.33;;
48777;SDS011;34578;0.000;0.000;2023-03-14T19:50:31;2.63;;;1.37;;
48777;SDS011;34578;0.000;0.000;2023-03-14T19:55:33;2.47;;;1.08;;
48777;SDS011;34578;0.000;0.000;2023-03-14T20:00:33;2.88;;;1.10;;
48777;SDS011;34578;0.000;0.000;2023-03-14T20:05:34;1.77;;;0.80;;
48777;SDS011;34578;0.000;0.000;2023-03-14T20:10:38;5.30;;;1.00;;
48777;SDS011;34578;0.000;0.000;2023-03-14T20:15:39;6.37;;;1.60;;
48777;SDS011;34578;0.000;0.000;2023-03-14T20:20:40;13.82;;;2.33;;
48777;SDS011;34578;0.000;0.000;2023-03-14T20:25:40;4.70;;;1.60;;
48777;SDS011;34578;0.000;0.000;2023-03-14T20:30:42;4.53;;;1.20;;
48777;SDS011;34578;0.000;0.000;2023-03-14T20:35:43;4.00;;;1.27;;
48777;SDS011;34578;0.000;0.000;2023-03-14T20:40:46;4.15;;;1.20;;
48777;SDS011;34578;0.000;0.000;2023-03-14T20:45:53;3.30;;;1.20;;
48777;SDS011;34578;0.000;0.000;2023-03-14T20:50:54;5.90;;;1.42;;
48777;SDS011;34578;0.000;0.000;2023-03-14T20:55:55;5.60;;;1.50;;
48777;SDS011;34578;0.000;0.000;2023-03-14T21:00:56;5.68;;;1.15;;
48777;SDS011;34578;0.000;0.000;2023-03-14T21:05:57;5.03;;;1.40;;
48777;SDS011;34578;0.000;0.000;2023-03-14T21:10:57;3.67;;;1.50;;
48777;SDS011;34578;0.000;0.000;2023-03-14T21:15:58;3.17;;;1.37;;
48777;SDS011;34578;0.000;0.000;2023-03-14T21:21:00;3.38;;;1.02;;
48777;SDS011;34578;0.000;0.000;2023-03-14T21:26:00;4.73;;;1.13;;
48777;SDS011;34578;0.000;0.000;2023-03-14T21:31:08;4.18;;;1.23;;
48777;SDS011;34578;0.000;0.000;2023-03-14T21:36:12;3.13;;;1.40;;
48777;SDS011;34578;0.000;0.000;2023-03-14T21:41:12;3.43;;;1.10;;
48777;SDS011;34578;0.000;0.000;2023-03-14T21:46:13;3.60;;;1.30;;
48777;SDS011;34578;0.000;0.000;2023-03-14T21:51:13;5.63;;;1.25;;
48777;SDS011;34578;0.000;0.000;2023-03-14T21:56:14;2.67;;;1.13;;
48777;SDS011;34578;0.000;0.000;2023-03-14T22:01:14;3.50;;;0.90;;
48777;SDS011;34578;0.000;0.000;2023-03-14T22:06:14;1.70;;;1.10;;
48777;SDS011;34578;0.000;0.000;2023-03-14T22:11:15;3.43;;;1.13;;
48777;SDS011;34578;0.000;0.000;2023-03-14T22:16:15;2.63;;;0.90;;
48777;SDS011;34578;0.000;0.000;2023-03-14T22:21:15;3.73;;;0.90;;
48777;SDS011;34578;0.000;0.000;2023-03-14T22:26:16;3.53;;;1.02;;
48777;SDS011;34578;0.000;0.000;2023-03-14T22:31:17;2.42;;;1.00;;
48777;SDS011;34578;0.000;0.000;2023-03-14T22:36:17;2.17;;;0.80;;
48777;SDS011;34578;0.000;0.000;2023-03-14T22:41:17;0.80;;;0.60;;
48777;SDS011;34578;0.000;0.000;2023-03-14T22:46:18;1.47;;;0.67;;
48777;SDS011;34578;0.000;0.000;2023-03-14T22:51:18;2.87;;;1.40;;
48777;SDS011;34578;0.000;0.000;2023-03-14T22:56:18;2.28;;;0.80;;
48777;SDS011;34578;0.000;0.000;2023-03-14T23:01:19;6.78;;;1.10;;
48777;SDS011;34578;0.000;0.000;2023-03-14T23:06:19;1.60;;;0.70;;
48777;SDS011;34578;0.000;0.000;2023-03-14T23:11:20;2.42;;;0.90;;
48777;SDS011;34578;0.000;0.000;2023-03-14T23:16:21;1.10;;;0.60;;
48777;SDS011;34578;0.000;0.000;2023-03-14T23:21:23;1.55;;;0.77;;
48777;SDS011;34578;0.000;0.000;2023-03-14T23:26:24;0.65;;;0.57;;
48777;SDS011;34578;0.000;0.000;2023-03-14T23:31:25;1.67;;;0.52;;
48777;SDS011;34578;0.000;0.000;2023-03-14T23:36:26;2.53;;;0.90;;
48777;SDS011;34578;0.000;0.000;2023-03-14T23:41:27;1.17;;;0.50;;
48777;SDS011;34578;0.000;0.000;2023-03-14T23:46:27;1.43;;;0.50;;
48777;SDS011;34578;0.000;0.000;2023-03-14T23:51:28;1.83;;;0.73;;
48777;SDS011;34578;0.000;0.000;2023-03-14T23:56:29;1.87;;;0.50;;
